Time;durP1;ratioP1;P1;durP2;ratioP2;P2;SDS_P1;SDS_P2;PMS_P1;PMS_P2;Temp;Humidity;BMP_temperature;BMP_pressure;BME280_temperature;BME280_humidity;BME280_pressure;Samples;Min_cycle;Max_cycle;Signal;HPM_P1;HPM_P2
2022/10/14 00:00:46;;;;;;;31.10;21.27;;;;;;;;;;5157099;27;20447;-72
2022/10/14 00:03:13;;;;;;;35.87;23.77;;;;;;;;;;5156953;27;20451;-72
2022/10/14 00:05:40;;;;;;;33.50;22.70;;;;;;;;;;5156238;27;20999;-72
2022/10/14 00:08:08;;;;;;;35.20;22.73;;;;;;;;;;5157146;27;20444;-72
2022/10/14 00:10:37;;;;;;;39.53;21.40;;;;;;;;;;5156731;27;20448;-72
2022/10/14 00:13:04;;;;;;;34.83;23.03;;;;;;;;;;5156657;27;20452;-71
2022/10/14 00:15:31;;;;;;;38.17;22.27;;;;;;;;;;5155967;27;20993;-72
2022/10/14 00:18:00;;;;;;;38.20;24.17;;;;;;;;;;5156832;27;20450;-72
2022/10/14 00:20:28;;;;;;;28.40;20.83;;;;;;;;;;5156569;27;20444;-72
2022/10/14 00:22:55;;;;;;;45.40;23.93;;;;;;;;;;5156850;27;20484;-72
2022/10/14 00:25:24;;;;;;;34.10;24.30;;;;;;;;;;5155725;27;21002;-72
2022/10/14 00:27:52;;;;;;;34.80;22.97;;;;;;;;;;5156415;27;20451;-72
2022/10/14 00:30:19;;;;;;;41.13;26.37;;;;;;;;;;5156666;27;20447;-72
2022/10/14 00:32:46;;;;;;;36.40;23.20;;;;;;;;;;5156297;27;20470;-72
2022/10/14 00:35:15;;;;;;;54.17;26.77;;;;;;;;;;5155837;27;20474;-72
2022/10/14 00:37:42;;;;;;;47.33;29.47;;;;;;;;;;5156244;27;20452;-72
2022/10/14 00:40:10;;;;;;;47.50;26.90;;;;;;;;;;5156416;27;20886;-72
2022/10/14 00:42:37;;;;;;;51.97;30.50;;;;;;;;;;5153970;27;20983;-73
2022/10/14 00:45:06;;;;;;;47.30;29.93;;;;;;;;;;5155373;27;20490;-73
2022/10/14 00:47:34;;;;;;;53.27;29.47;;;;;;;;;;5155979;27;20970;-73
2022/10/14 00:50:01;;;;;;;50.93;30.80;;;;;;;;;;5154683;27;20898;-72
2022/10/14 00:52:30;;;;;;;52.77;29.80;;;;;;;;;;5155932;27;20443;-73
2022/10/14 00:54:59;;;;;;;54.37;28.97;;;;;;;;;;5155424;27;20471;-73
2022/10/14 00:57:26;;;;;;;50.50;29.40;;;;;;;;;;5155826;27;20791;-73
2022/10/14 00:59:54;;;;;;;50.63;30.17;;;;;;;;;;5156039;27;20956;-73
2022/10/14 01:02:21;;;;;;;50.73;31.97;;;;;;;;;;5155794;27;20454;-73
2022/10/14 01:04:49;;;;;;;55.13;30.47;;;;;;;;;;5154913;27;20490;-73
2022/10/14 01:07:19;;;;;;;50.87;30.03;;;;;;;;;;5155893;27;20440;-72
2022/10/14 01:09:54;;;;;;;55.53;32.27;;;;;;;;;;5155411;27;20470;-73
2022/10/14 01:12:25;;;;;;;55.70;31.80;;;;;;;;;;5155666;27;20461;-72
2022/10/14 01:14:58;;;;;;;49.37;30.00;;;;;;;;;;5155003;27;20472;-73
2022/10/14 01:17:29;;;;;;;56.07;31.67;;;;;;;;;;5155470;27;20459;-73
2022/10/14 01:20:11;;;;;;;52.87;28.30;;;;;;;;;;5155697;27;20940;-73
2022/10/14 01:22:41;;;;;;;42.60;27.47;;;;;;;;;;5155475;27;20468;-73
2022/10/14 01:25:15;;;;;;;48.47;28.30;;;;;;;;;;5153864;27;20498;-73
2022/10/14 01:27:49;;;;;;;47.10;28.43;;;;;;;;;;5155204;27;20474;-73
2022/10/14 01:30:21;;;;;;;52.53;27.77;;;;;;;;;;5155398;27;20824;-73
2022/10/14 01:32:58;;;;;;;41.83;24.47;;;;;;;;;;5155120;27;20813;-73
2022/10/14 01:35:30;;;;;;;43.97;25.67;;;;;;;;;;5154560;27;20478;-73
2022/10/14 01:37:59;;;;;;;44.97;25.70;;;;;;;;;;5155236;27;20779;-73
2022/10/14 01:40:33;;;;;;;42.63;26.97;;;;;;;;;;5155026;27;20451;-73
2022/10/14 01:43:01;;;;;;;51.00;26.47;;;;;;;;;;5153223;27;20474;-73
2022/10/14 01:45:32;;;;;;;47.63;28.60;;;;;;;;;;5154237;27;20479;-73
2022/10/14 01:48:00;;;;;;;40.17;26.73;;;;;;;;;;5153556;27;20474;-74
2022/10/14 01:50:29;;;;;;;41.87;26.37;;;;;;;;;;5154814;27;20819;-73
2022/10/14 01:52:59;;;;;;;52.20;29.00;;;;;;;;;;5155200;27;20448;-73
2022/10/14 01:55:28;;;;;;;43.33;26.63;;;;;;;;;;5154135;27;20550;-73
2022/10/14 01:57:56;;;;;;;44.20;25.17;;;;;;;;;;5154808;27;20456;-73
2022/10/14 02:00:23;;;;;;;36.60;25.47;;;;;;;;;;5154804;27;20488;-73
2022/10/14 02:02:52;;;;;;;52.23;26.47;;;;;;;;;;5154827;27;20932;-73
2022/10/14 02:05:21;;;;;;;37.37;23.40;;;;;;;;;;5154036;27;20490;-73
2022/10/14 02:07:50;;;;;;;33.63;23.80;;;;;;;;;;5154668;27;20444;-72
2022/10/14 02:10:22;;;;;;;41.50;24.50;;;;;;;;;;5154512;27;20452;-73
2022/10/14 02:12:56;;;;;;;36.07;23.30;;;;;;;;;;5154749;27;20460;-72
2022/10/14 02:15:31;;;;;;;32.40;21.33;;;;;;;;;;5153880;27;20459;-72
2022/10/14 02:18:03;;;;;;;34.23;22.03;;;;;;;;;;5154587;27;20461;-72
2022/10/14 02:20:33;;;;;;;37.87;22.60;;;;;;;;;;5154431;27;20448;-72
2022/10/14 02:23:02;;;;;;;35.90;22.17;;;;;;;;;;5154634;27;20443;-72
2022/10/14 02:25:38;;;;;;;36.10;22.47;;;;;;;;;;5154089;27;21013;-72
2022/10/14 02:28:07;;;;;;;40.53;22.23;;;;;;;;;;5155083;27;20451;-72
2022/10/14 02:30:35;;;;;;;31.17;21.23;;;;;;;;;;5154808;27;20451;-72
2022/10/14 02:33:05;;;;;;;38.33;21.43;;;;;;;;;;5154695;27;20449;-72
2022/10/14 02:35:34;;;;;;;31.60;18.90;;;;;;;;;;5153921;27;20464;-72
2022/10/14 02:38:02;;;;;;;31.57;19.67;;;;;;;;;;5154833;27;20451;-72
2022/10/14 02:40:31;;;;;;;32.90;20.63;;;;;;;;;;5154649;27;20451;-72
2022/10/14 02:42:58;;;;;;;26.47;16.90;;;;;;;;;;5152938;27;20443;-73
2022/10/14 02:45:26;;;;;;;27.23;16.43;;;;;;;;;;5153911;27;20842;-73
2022/10/14 02:47:53;;;;;;;22.00;14.20;;;;;;;;;;5154503;27;20505;-73
2022/10/14 02:50:22;;;;;;;21.77;15.00;;;;;;;;;;5154448;27;20453;-73
2022/10/14 02:52:49;;;;;;;18.90;12.67;;;;;;;;;;5154815;27;20478;-73
2022/10/14 02:55:16;;;;;;;23.00;12.30;;;;;;;;;;5153820;27;20467;-73
2022/10/14 02:57:43;;;;;;;15.17;11.17;;;;;;;;;;5154548;27;20443;-72
2022/10/14 03:00:11;;;;;;;15.77;11.13;;;;;;;;;;5154490;27;20450;-73
2022/10/14 03:02:38;;;;;;;19.30;10.83;;;;;;;;;;5154224;27;20451;-73
2022/10/14 03:05:06;;;;;;;15.93;10.07;;;;;;;;;;5153777;27;20472;-72
2022/10/14 03:07:34;;;;;;;16.80;10.93;;;;;;;;;;5154351;27;20483;-73
2022/10/14 03:10:02;;;;;;;13.47;9.13;;;;;;;;;;5154334;27;20447;-72
2022/10/14 03:12:29;;;;;;;10.60;8.80;;;;;;;;;;5154214;27;20478;-73
2022/10/14 03:14:56;;;;;;;13.77;9.33;;;;;;;;;;5153647;27;20998;-72
2022/10/14 03:17:23;;;;;;;12.77;9.40;;;;;;;;;;5154469;27;20454;-73
2022/10/14 03:19:51;;;;;;;18.63;9.97;;;;;;;;;;5154289;27;20511;-72
2022/10/14 03:22:18;;;;;;;13.37;9.60;;;;;;;;;;5154395;27;20812;-72
2022/10/14 03:24:46;;;;;;;12.20;9.00;;;;;;;;;;5153447;27;20486;-73
2022/10/14 03:27:13;;;;;;;12.43;8.97;;;;;;;;;;5154249;27;20505;-73
2022/10/14 03:29:40;;;;;;;11.13;8.07;;;;;;;;;;5153985;27;20454;-73
2022/10/14 03:32:08;;;;;;;13.10;8.30;;;;;;;;;;5154240;27;20452;-73
2022/10/14 03:34:35;;;;;;;12.57;8.00;;;;;;;;;;5153447;27;20984;-73
2022/10/14 03:37:02;;;;;;;10.83;8.00;;;;;;;;;;5154265;27;20523;-73
2022/10/14 03:39:29;;;;;;;14.30;9.00;;;;;;;;;;5154075;27;20451;-73
2022/10/14 03:41:57;;;;;;;7.90;6.90;;;;;;;;;;5151906;27;20823;-73
2022/10/14 03:44:25;;;;;;;10.53;7.70;;;;;;;;;;5153327;27;20454;-73
2022/10/14 03:46:52;;;;;;;18.10;7.80;;;;;;;;;;5154025;27;20487;-73
2022/10/14 03:49:19;;;;;;;10.17;8.20;;;;;;;;;;5156109;27;20951;-72
2022/10/14 03:51:46;;;;;;;10.87;8.30;;;;;;;;;;5157880;27;20893;-72
2022/10/14 03:54:13;;;;;;;19.33;10.63;;;;;;;;;;5157245;27;20454;-73
2022/10/14 03:56:40;;;;;;;14.30;8.60;;;;;;;;;;5157680;27;20486;-73
2022/10/14 03:59:09;;;;;;;12.63;8.90;;;;;;;;;;5157821;27;20951;-73
2022/10/14 04:01:36;;;;;;;13.67;8.10;;;;;;;;;;5157734;27;20455;-73
2022/10/14 04:04:03;;;;;;;10.30;7.50;;;;;;;;;;5157033;27;20439;-73
2022/10/14 04:06:31;;;;;;;10.10;7.67;;;;;;;;;;5157449;27;20483;-73
2022/10/14 04:08:58;;;;;;;10.63;6.87;;;;;;;;;;5157710;27;20500;-73
2022/10/14 04:11:25;;;;;;;9.17;6.57;;;;;;;;;;5157417;27;20465;-73
2022/10/14 04:13:52;;;;;;;10.47;6.97;;;;;;;;;;5156821;27;20463;-73
2022/10/14 04:16:20;;;;;;;9.00;6.33;;;;;;;;;;5157509;27;20473;-72
2022/10/14 04:18:47;;;;;;;9.37;7.20;;;;;;;;;;5157533;27;20489;-72
2022/10/14 04:21:15;;;;;;;12.90;8.20;;;;;;;;;;5157216;27;21011;-72
2022/10/14 04:23:42;;;;;;;10.77;6.80;;;;;;;;;;5156678;27;20452;-72
2022/10/14 04:26:10;;;;;;;9.47;7.80;;;;;;;;;;5157201;27;20483;-72
2022/10/14 04:28:37;;;;;;;10.23;7.20;;;;;;;;;;5157167;27;20444;-72
2022/10/14 04:31:04;;;;;;;10.13;6.73;;;;;;;;;;5157148;27;20444;-72
2022/10/14 04:33:33;;;;;;;13.37;8.30;;;;;;;;;;5156351;27;20455;-73
2022/10/14 04:36:01;;;;;;;13.90;10.00;;;;;;;;;;5156849;27;20889;-72
2022/10/14 04:38:28;;;;;;;18.70;8.20;;;;;;;;;;5156918;27;20456;-72
2022/10/14 04:40:56;;;;;;;12.90;9.00;;;;;;;;;;5157022;27;20447;-72
2022/10/14 04:43:23;;;;;;;11.43;6.60;;;;;;;;;;5154063;27;20444;-73
2022/10/14 04:45:50;;;;;;;10.87;7.03;;;;;;;;;;5156262;27;20463;-72
2022/10/14 04:48:18;;;;;;;10.80;6.57;;;;;;;;;;5155711;27;20455;-72
2022/10/14 04:50:46;;;;;;;11.60;6.60;;;;;;;;;;5156690;27;20508;-72
2022/10/14 04:53:13;;;;;;;13.10;9.93;;;;;;;;;;5156663;27;20451;-72
2022/10/14 04:55:40;;;;;;;29.87;20.57;;;;;;;;;;5155868;27;20473;-72
2022/10/14 04:58:08;;;;;;;12.37;9.87;;;;;;;;;;5156823;27;20447;-72
2022/10/14 05:00:35;;;;;;;12.80;8.97;;;;;;;;;;5155406;27;20956;-72
2022/10/14 05:03:02;;;;;;;14.50;9.30;;;;;;;;;;5156433;27;20439;-72
2022/10/14 05:05:29;;;;;;;13.70;10.90;;;;;;;;;;5155548;27;20468;-72
2022/10/14 05:07:57;;;;;;;9.57;8.37;;;;;;;;;;5156386;27;20487;-72
2022/10/14 05:10:24;;;;;;;19.33;11.67;;;;;;;;;;5156503;27;20451;-72
2022/10/14 05:12:52;;;;;;;12.10;8.70;;;;;;;;;;5156291;27;20462;-72
2022/10/14 05:15:19;;;;;;;11.37;8.40;;;;;;;;;;5155698;27;20472;-72
2022/10/14 05:17:46;;;;;;;13.53;8.30;;;;;;;;;;5155927;27;20452;-72
2022/10/14 05:20:13;;;;;;;12.10;8.37;;;;;;;;;;5156242;27;20464;-72
2022/10/14 05:22:40;;;;;;;12.50;8.77;;;;;;;;;;5156075;27;20443;-72
2022/10/14 05:25:10;;;;;;;12.70;7.37;;;;;;;;;;5155649;27;20544;-72
2022/10/14 05:27:37;;;;;;;12.40;8.30;;;;;;;;;;5155811;27;20854;-72
2022/10/14 05:30:04;;;;;;;12.53;9.37;;;;;;;;;;5155852;27;20454;-72
2022/10/14 05:32:32;;;;;;;16.40;9.10;;;;;;;;;;5155850;27;20447;-72
2022/10/14 05:34:59;;;;;;;14.00;10.50;;;;;;;;;;5155270;27;20515;-72
2022/10/14 05:37:26;;;;;;;11.10;9.27;;;;;;;;;;5155804;27;20814;-72
2022/10/14 05:39:54;;;;;;;14.00;8.30;;;;;;;;;;5155676;27;20444;-72
2022/10/14 05:42:22;;;;;;;10.17;7.10;;;;;;;;;;5153940;27;20455;-72
2022/10/14 05:44:49;;;;;;;15.17;8.43;;;;;;;;;;5154909;27;20479;-72
2022/10/14 05:47:16;;;;;;;12.10;7.67;;;;;;;;;;5155586;27;21017;-72
2022/10/14 05:49:43;;;;;;;8.57;7.10;;;;;;;;;;5153939;27;20450;-72
2022/10/14 05:52:11;;;;;;;12.13;9.50;;;;;;;;;;5155600;27;20448;-72
2022/10/14 05:54:38;;;;;;;11.17;8.20;;;;;;;;;;5154756;27;20454;-72
2022/10/14 05:57:05;;;;;;;14.40;8.63;;;;;;;;;;5155520;27;20808;-72
2022/10/14 05:59:34;;;;;;;10.97;7.73;;;;;;;;;;5155315;27;20448;-72
2022/10/14 06:02:01;;;;;;;11.80;9.03;;;;;;;;;;5155230;27;20450;-72
2022/10/14 06:04:28;;;;;;;8.83;7.80;;;;;;;;;;5154633;27;20447;-72
2022/10/14 06:06:55;;;;;;;9.60;8.60;;;;;;;;;;5155567;27;20839;-72
2022/10/14 06:09:23;;;;;;;13.43;8.53;;;;;;;;;;5155158;27;20447;-72
2022/10/14 06:11:50;;;;;;;11.90;8.30;;;;;;;;;;5154821;27;20464;-72
2022/10/14 06:14:17;;;;;;;12.27;8.23;;;;;;;;;;5154356;27;20451;-72
2022/10/14 06:16:45;;;;;;;11.27;8.43;;;;;;;;;;5154947;27;20547;-72
2022/10/14 06:19:13;;;;;;;11.10;8.33;;;;;;;;;;5155278;27;20446;-72
2022/10/14 06:21:40;;;;;;;10.60;7.30;;;;;;;;;;5155094;27;20444;-72
2022/10/14 06:24:07;;;;;;;10.10;6.63;;;;;;;;;;5154276;27;20546;-72
2022/10/14 06:26:34;;;;;;;8.70;6.20;;;;;;;;;;5154693;27;20482;-72
2022/10/14 06:29:02;;;;;;;10.20;6.00;;;;;;;;;;5155018;27;20448;-72
2022/10/14 06:31:29;;;;;;;11.23;6.60;;;;;;;;;;5155010;27;20446;-72
2022/10/14 06:33:57;;;;;;;6.80;5.70;;;;;;;;;;5154250;27;20455;-72
2022/10/14 06:36:24;;;;;;;6.83;5.77;;;;;;;;;;5154658;27;20850;-72
2022/10/14 06:38:51;;;;;;;17.83;10.30;;;;;;;;;;5154568;27;20452;-72
2022/10/14 06:41:19;;;;;;;10.20;7.27;;;;;;;;;;5154713;27;20448;-72
2022/10/14 06:43:46;;;;;;;7.60;6.33;;;;;;;;;;5151548;27;20454;-72
2022/10/14 06:46:13;;;;;;;8.60;6.37;;;;;;;;;;5154534;27;20463;-72
2022/10/14 06:48:40;;;;;;;10.67;6.03;;;;;;;;;;5152847;27;20483;-72
2022/10/14 06:51:10;;;;;;;8.43;5.53;;;;;;;;;;5154738;27;20448;-72
2022/10/14 06:53:37;;;;;;;6.20;5.47;;;;;;;;;;5153920;27;20447;-72
2022/10/14 06:56:05;;;;;;;6.70;6.00;;;;;;;;;;5154525;27;20464;-72
2022/10/14 06:58:33;;;;;;;14.23;10.00;;;;;;;;;;5154458;27;20444;-72
2022/10/14 07:01:02;;;;;;;11.80;6.90;;;;;;;;;;5154598;27;21012;-72
2022/10/14 07:03:29;;;;;;;7.57;6.07;;;;;;;;;;5153854;27;20492;-72
2022/10/14 07:05:56;;;;;;;6.20;5.53;;;;;;;;;;5154329;27;20532;-72
2022/10/14 07:08:25;;;;;;;5.83;4.93;;;;;;;;;;5154241;27;20559;-72
2022/10/14 07:10:52;;;;;;;5.27;4.60;;;;;;;;;;5154441;27;20447;-72
2022/10/14 07:13:19;;;;;;;12.40;6.17;;;;;;;;;;5154480;27;20451;-73
2022/10/14 07:15:48;;;;;;;7.67;5.90;;;;;;;;;;5153674;27;20471;-72
2022/10/14 07:18:15;;;;;;;7.77;5.03;;;;;;;;;;5154402;27;20924;-72
2022/10/14 07:20:43;;;;;;;16.93;12.60;;;;;;;;;;5154160;27;20450;-72
2022/10/14 07:23:10;;;;;;;7.67;5.20;;;;;;;;;;5155536;27;20453;-72
2022/10/14 07:25:38;;;;;;;5.97;4.80;;;;;;;;;;5157704;27;20474;-72
2022/10/14 07:28:06;;;;;;;8.33;4.27;;;;;;;;;;5158572;27;20842;-72
2022/10/14 07:30:33;;;;;;;4.83;4.43;;;;;;;;;;5158356;27;20443;-72
2022/10/14 07:33:00;;;;;;;6.70;4.37;;;;;;;;;;5158270;27;20948;-72
2022/10/14 07:35:28;;;;;;;4.93;3.93;;;;;;;;;;5157377;27;20464;-72
2022/10/14 07:37:55;;;;;;;5.37;4.57;;;;;;;;;;5158162;27;20459;-72
2022/10/14 07:40:22;;;;;;;10.57;6.10;;;;;;;;;;5158138;27;20450;-72
2022/10/14 07:42:51;;;;;;;15.77;9.30;;;;;;;;;;5155290;27;20440;-72
2022/10/14 07:45:19;;;;;;;6.53;5.30;;;;;;;;;;5157400;27;20483;-72
2022/10/14 07:47:48;;;;;;;8.40;5.07;;;;;;;;;;5157685;27;20533;-72
2022/10/14 07:50:15;;;;;;;8.57;5.40;;;;;;;;;;5157094;27;20451;-72
2022/10/14 07:52:42;;;;;;;5.73;4.30;;;;;;;;;;5157813;27;20461;-72
2022/10/14 07:55:09;;;;;;;5.57;5.07;;;;;;;;;;5157205;27;20475;-72
2022/10/14 07:57:36;;;;;;;5.87;4.27;;;;;;;;;;5157774;27;20454;-72
2022/10/14 08:00:06;;;;;;;6.43;5.20;;;;;;;;;;5157822;27;20465;-72
2022/10/14 08:02:33;;;;;;;5.10;4.10;;;;;;;;;;5157664;27;20853;-72
2022/10/14 08:05:00;;;;;;;4.63;4.23;;;;;;;;;;5157123;27;20469;-72
2022/10/14 08:07:28;;;;;;;14.20;4.33;;;;;;;;;;5157710;27;20573;-72
2022/10/14 08:09:55;;;;;;;5.23;3.40;;;;;;;;;;5157708;27;20447;-72
2022/10/14 08:12:22;;;;;;;3.43;2.80;;;;;;;;;;5157394;27;20473;-72
2022/10/14 08:14:49;;;;;;;6.83;3.27;;;;;;;;;;5156510;27;20471;-72
2022/10/14 08:17:18;;;;;;;3.50;2.80;;;;;;;;;;5157366;27;20815;-72
2022/10/14 08:19:45;;;;;;;2.93;2.63;;;;;;;;;;5157380;27;20470;-71
2022/10/14 08:22:12;;;;;;;4.70;2.70;;;;;;;;;;5157503;27;20447;-72
2022/10/14 08:24:39;;;;;;;3.10;2.80;;;;;;;;;;5156546;27;20440;-72
2022/10/14 08:27:06;;;;;;;3.03;2.73;;;;;;;;;;5157195;27;20444;-72
2022/10/14 08:29:34;;;;;;;4.10;3.23;;;;;;;;;;5157192;27;20947;-72
2022/10/14 08:32:01;;;;;;;2.70;1.93;;;;;;;;;;5157215;27;20452;-72
2022/10/14 08:34:30;;;;;;;2.93;2.40;;;;;;;;;;5156161;27;20474;-72
2022/10/14 08:36:57;;;;;;;2.50;2.30;;;;;;;;;;5156970;27;20455;-72
2022/10/14 08:39:24;;;;;;;5.60;2.53;;;;;;;;;;5156900;27;20447;-72
2022/10/14 08:42:04;;;;;;;3.90;2.33;;;;;;;;;;5155432;27;20814;-73
2022/10/14 08:44:35;;;;;;;3.17;2.00;;;;;;;;;;5156122;27;20451;-72
2022/10/14 08:47:03;;;;;;;7.60;2.60;;;;;;;;;;5156907;27;20462;-72
2022/10/14 08:49:36;;;;;;;7.30;4.07;;;;;;;;;;5155763;27;20450;-72
2022/10/14 08:52:05;;;;;;;3.40;3.10;;;;;;;;;;5156855;27;20949;-72
2022/10/14 08:54:35;;;;;;;5.53;2.50;;;;;;;;;;5155771;27;20444;-72
2022/10/14 08:57:03;;;;;;;4.10;2.30;;;;;;;;;;5156849;27;20459;-72
2022/10/14 08:59:30;;;;;;;3.47;2.33;;;;;;;;;;5156710;27;20496;-72
2022/10/14 09:02:00;;;;;;;2.97;2.50;;;;;;;;;;5156638;27;20450;-72
2022/10/14 09:04:27;;;;;;;7.30;2.63;;;;;;;;;;5155759;27;20955;-72
2022/10/14 09:06:55;;;;;;;3.90;2.47;;;;;;;;;;5156543;27;20450;-72
2022/10/14 09:09:25;;;;;;;3.53;2.90;;;;;;;;;;5156362;27;21022;-72
2022/10/14 09:11:54;;;;;;;8.43;3.00;;;;;;;;;;5156341;27;20808;-72
2022/10/14 09:14:23;;;;;;;4.80;2.83;;;;;;;;;;5155764;27;20450;-72
2022/10/14 09:16:52;;;;;;;3.43;2.93;;;;;;;;;;5156222;27;20471;-72
2022/10/14 09:19:27;;;;;;;5.90;2.53;;;;;;;;;;5156185;27;20531;-72
2022/10/14 09:21:56;;;;;;;4.20;2.77;;;;;;;;;;5156233;27;20447;-72
2022/10/14 09:24:24;;;;;;;3.10;2.57;;;;;;;;;;5155575;27;20457;-72
2022/10/14 09:26:52;;;;;;;4.10;3.27;;;;;;;;;;5156286;27;20443;-72
2022/10/14 09:29:24;;;;;;;3.67;3.17;;;;;;;;;;5156087;27;20475;-72
2022/10/14 09:31:52;;;;;;;6.37;2.53;;;;;;;;;;5155829;27;20444;-72
2022/10/14 09:34:20;;;;;;;4.47;2.83;;;;;;;;;;5155363;27;20776;-72
2022/10/14 09:36:49;;;;;;;3.20;2.70;;;;;;;;;;5155736;27;20500;-72
2022/10/14 09:39:17;;;;;;;3.90;3.10;;;;;;;;;;5155824;27;20444;-72
2022/10/14 09:41:47;;;;;;;4.20;2.83;;;;;;;;;;5155500;27;20455;-73
2022/10/14 09:44:17;;;;;;;3.97;3.17;;;;;;;;;;5153429;27;20458;-72
2022/10/14 09:46:46;;;;;;;4.83;3.40;;;;;;;;;;5154825;27;20479;-72
2022/10/14 09:49:16;;;;;;;6.30;3.47;;;;;;;;;;5154472;27;20483;-72
2022/10/14 09:51:44;;;;;;;6.97;3.20;;;;;;;;;;5155485;27;20448;-72
2022/10/14 09:54:22;;;;;;;4.33;3.07;;;;;;;;;;5154950;27;20458;-72
2022/10/14 09:56:49;;;;;;;4.87;3.10;;;;;;;;;;5155441;27;20550;-72
2022/10/14 09:59:18;;;;;;;3.63;2.60;;;;;;;;;;5155400;27;20486;-72
2022/10/14 10:01:50;;;;;;;3.30;2.90;;;;;;;;;;5155171;27;20565;-73
2022/10/14 10:04:31;;;;;;;3.00;2.60;;;;;;;;;;5154865;27;20455;-72
2022/10/14 10:06:59;;;;;;;4.23;3.17;;;;;;;;;;5155541;27;20443;-72
2022/10/14 10:09:27;;;;;;;11.63;3.77;;;;;;;;;;5154997;27;20491;-73
2022/10/14 10:11:55;;;;;;;4.50;3.23;;;;;;;;;;5154822;27;20463;-72
2022/10/14 10:14:23;;;;;;;4.40;2.80;;;;;;;;;;5154702;27;20451;-72
2022/10/14 10:16:51;;;;;;;3.43;2.97;;;;;;;;;;5155152;27;20456;-72
2022/10/14 10:19:26;;;;;;;8.13;3.47;;;;;;;;;;5155010;27;20439;-72
2022/10/14 10:21:53;;;;;;;3.00;2.70;;;;;;;;;;5155091;27;20447;-73
2022/10/14 10:24:22;;;;;;;3.40;3.03;;;;;;;;;;5154348;27;20444;-72
2022/10/14 10:26:50;;;;;;;6.33;3.37;;;;;;;;;;5154907;27;20464;-72
2022/10/14 10:29:24;;;;;;;3.57;3.20;;;;;;;;;;5154845;27;20480;-72
2022/10/14 10:32:05;;;;;;;3.77;3.27;;;;;;;;;;5154924;27;20452;-72
2022/10/14 10:34:43;;;;;;;6.57;3.83;;;;;;;;;;5154160;27;20459;-72
2022/10/14 10:37:19;;;;;;;4.63;3.10;;;;;;;;;;5154931;27;20953;-72
2022/10/14 10:39:48;;;;;;;5.20;4.00;;;;;;;;;;5154629;27;20510;-72
2022/10/14 10:42:19;;;;;;;7.83;3.73;;;;;;;;;;5152952;27;20451;-73
2022/10/14 10:44:53;;;;;;;8.30;3.30;;;;;;;;;;5153828;27;20965;-72
2022/10/14 10:47:25;;;;;;;4.13;3.67;;;;;;;;;;5154660;27;20454;-72
2022/10/14 10:49:59;;;;;;;3.40;3.10;;;;;;;;;;5153066;27;20490;-73
2022/10/14 10:52:33;;;;;;;3.27;2.93;;;;;;;;;;5154608;27;20507;-72
2022/10/14 10:55:03;;;;;;;8.50;4.33;;;;;;;;;;5153914;27;20475;-73
2022/10/14 10:57:38;;;;;;;4.50;3.07;;;;;;;;;;5153509;27;20527;-73
2022/10/14 11:00:09;;;;;;;4.10;2.93;;;;;;;;;;5154575;27;20443;-73
2022/10/14 11:02:56;;;;;;;3.80;2.83;;;;;;;;;;5154500;27;20447;-73
2022/10/14 11:05:38;;;;;;;4.40;3.40;;;;;;;;;;5153693;27;20470;-73
2022/10/14 11:13:48;;;;;;;7.80;2.40;;;;;;;;;;5153802;27;20557;-73
2022/10/14 11:16:18;;;;;;;9.10;2.30;;;;;;;;;;5154251;27;20471;-73
2022/10/14 11:18:49;;;;;;;2.20;1.90;;;;;;;;;;5154313;27;20454;-73
2022/10/14 11:21:21;;;;;;;2.70;2.50;;;;;;;;;;5154523;27;20447;-73
2022/10/14 11:23:58;;;;;;;2.20;2.00;;;;;;;;;;5153541;27;20467;-73
2022/10/14 11:26:30;;;;;;;3.37;1.80;;;;;;;;;;5154036;27;20471;-73
2022/10/14 11:29:01;;;;;;;5.20;1.80;;;;;;;;;;5154273;27;20932;-72
2022/10/14 11:31:32;;;;;;;4.30;2.30;;;;;;;;;;5154281;27;20933;-72
2022/10/14 11:34:08;;;;;;;3.93;1.80;;;;;;;;;;5153542;27;20447;-72
2022/10/14 11:36:40;;;;;;;3.63;2.10;;;;;;;;;;5154025;27;20475;-72
2022/10/14 11:39:12;;;;;;;3.60;2.60;;;;;;;;;;5154196;27;20813;-72
2022/10/14 11:41:45;;;;;;;2.53;1.73;;;;;;;;;;5154077;27;20447;-72
2022/10/14 11:44:16;;;;;;;2.43;2.10;;;;;;;;;;5151348;27;20432;-72
2022/10/14 11:46:45;;;;;;;2.27;1.77;;;;;;;;;;5154068;27;20478;-72
2022/10/14 11:49:14;;;;;;;4.40;2.00;;;;;;;;;;5152753;27;20484;-72
2022/10/14 11:51:44;;;;;;;3.00;2.37;;;;;;;;;;5153890;27;20543;-72
2022/10/14 11:54:13;;;;;;;6.83;3.00;;;;;;;;;;5153612;27;20790;-72
2022/10/14 11:56:44;;;;;;;2.80;1.70;;;;;;;;;;5153751;27;20476;-72
2022/10/14 11:59:21;;;;;;;4.10;2.27;;;;;;;;;;5154023;27;21050;-72
2022/10/14 12:01:50;;;;;;;2.20;1.90;;;;;;;;;;5153985;27;20454;-73
2022/10/14 12:04:23;;;;;;;3.83;2.27;;;;;;;;;;5153231;27;20481;-72
2022/10/14 12:06:55;;;;;;;2.87;2.67;;;;;;;;;;5153857;27;20973;-72
2022/10/14 12:09:25;;;;;;;3.37;2.50;;;;;;;;;;5155244;27;20490;-72
2022/10/14 12:11:54;;;;;;;3.20;2.40;;;;;;;;;;5157451;27;20467;-73
2022/10/14 12:14:26;;;;;;;10.23;2.50;;;;;;;;;;5156761;27;20447;-73
2022/10/14 12:16:53;;;;;;;7.73;2.47;;;;;;;;;;5157488;27;20491;-73
2022/10/14 12:19:24;;;;;;;2.73;2.30;;;;;;;;;;5157447;27;20449;-72
2022/10/14 12:21:54;;;;;;;6.30;2.70;;;;;;;;;;5157454;27;20447;-72
2022/10/14 12:24:24;;;;;;;5.73;2.47;;;;;;;;;;5156628;27;20447;-72
2022/10/14 12:26:52;;;;;;;3.00;2.03;;;;;;;;;;5157193;27;20449;-72
2022/10/14 12:29:20;;;;;;;4.23;2.07;;;;;;;;;;5157124;27;20483;-72
2022/10/14 12:32:06;;;;;;;4.20;1.93;;;;;;;;;;5157113;27;20801;-72
2022/10/14 12:34:34;;;;;;;2.20;2.00;;;;;;;;;;5156428;27;20819;-73
2022/10/14 12:37:22;;;;;;;1.77;1.67;;;;;;;;;;5156944;27;20444;-73
2022/10/14 12:39:50;;;;;;;2.10;1.83;;;;;;;;;;5156871;27;20448;-72
2022/10/14 12:42:17;;;;;;;3.13;1.67;;;;;;;;;;5155008;27;20456;-73
2022/10/14 12:44:46;;;;;;;2.53;1.80;;;;;;;;;;5156143;27;20455;-73
2022/10/14 12:47:20;;;;;;;2.10;1.90;;;;;;;;;;5156945;27;20820;-72
2022/10/14 12:49:48;;;;;;;2.67;1.80;;;;;;;;;;5155133;27;20840;-72
2022/10/14 12:52:19;;;;;;;2.10;1.90;;;;;;;;;;5157143;27;20809;-72
2022/10/14 12:54:47;;;;;;;3.10;1.83;;;;;;;;;;5156166;27;20478;-72
2022/10/14 12:57:21;;;;;;;3.17;2.47;;;;;;;;;;5157215;27;20447;-72
2022/10/14 12:59:50;;;;;;;3.43;1.80;;;;;;;;;;5156939;27;20446;-72
2022/10/14 13:02:19;;;;;;;2.37;1.90;;;;;;;;;;5156884;27;20447;-72
2022/10/14 13:04:49;;;;;;;2.53;1.90;;;;;;;;;;5156364;27;20463;-72
2022/10/14 13:07:31;;;;;;;3.07;1.83;;;;;;;;;;5156837;27;20459;-72
2022/10/14 13:09:59;;;;;;;4.73;1.60;;;;;;;;;;5153582;27;20483;-72
2022/10/14 13:12:44;;;;;;;5.50;1.80;;;;;;;;;;5156454;27;20470;-72
2022/10/14 13:15:41;;;;;;;6.10;1.67;;;;;;;;;;5155840;27;20459;-71
2022/10/14 13:18:27;;;;;;;3.47;2.00;;;;;;;;;;5072367;28;20459;-71
2022/10/14 13:20:55;;;;;;;5.40;1.73;;;;;;;;;;5146311;27;20459;-72
2022/10/14 13:23:29;;;;;;;4.10;2.10;;;;;;;;;;5156549;27;20447;-72
2022/10/14 13:25:59;;;;;;;5.43;2.10;;;;;;;;;;5156253;27;20482;-72
2022/10/14 13:28:29;;;;;;;3.70;1.80;;;;;;;;;;5156308;27;20811;-72
2022/10/14 13:30:59;;;;;;;3.70;2.60;;;;;;;;;;5156543;27;20807;-72
2022/10/14 13:33:29;;;;;;;14.23;10.73;;;;;;;;;;5156109;27;20897;-72
2022/10/14 13:36:02;;;;;;;4.13;3.73;;;;;;;;;;5155794;27;20464;-72
2022/10/14 13:38:30;;;;;;;8.70;6.80;;;;;;;;;;5156138;27;20531;-72
2022/10/14 13:40:58;;;;;;;2.40;2.20;;;;;;;;;;5156395;27;20457;-72
2022/10/14 13:43:28;;;;;;;2.60;1.80;;;;;;;;;;5154356;27;20447;-72
2022/10/14 13:45:56;;;;;;;2.23;1.97;;;;;;;;;;5155788;27;20467;-72
2022/10/14 13:48:27;;;;;;;42.37;25.50;;;;;;;;;;5155322;27;20474;-72
2022/10/14 13:50:59;;;;;;;5.90;4.07;;;;;;;;;;5156185;27;20473;-72
2022/10/14 13:53:27;;;;;;;5.00;2.73;;;;;;;;;;5155441;27;20449;-72
2022/10/14 13:55:56;;;;;;;3.40;2.23;;;;;;;;;;5155858;27;20479;-72
2022/10/14 13:58:23;;;;;;;3.30;2.23;;;;;;;;;;5155606;27;20459;-72
2022/10/14 14:00:52;;;;;;;4.13;2.57;;;;;;;;;;5155800;27;20941;-72
2022/10/14 14:03:22;;;;;;;2.73;1.67;;;;;;;;;;5155623;27;20452;-72
2022/10/14 14:05:49;;;;;;;2.93;1.80;;;;;;;;;;5155377;27;20838;-72
2022/10/14 14:08:19;;;;;;;2.13;1.90;;;;;;;;;;5155422;27;20450;-72
2022/10/14 14:10:55;;;;;;;5.80;4.10;;;;;;;;;;5155037;27;20491;-72
2022/10/14 14:13:23;;;;;;;3.83;2.50;;;;;;;;;;5155308;27;20432;-72
2022/10/14 14:15:51;;;;;;;2.70;1.90;;;;;;;;;;5155268;27;20463;-72
2022/10/14 14:18:28;;;;;;;3.03;2.10;;;;;;;;;;5155515;27;20963;-72
2022/10/14 14:20:57;;;;;;;3.37;3.07;;;;;;;;;;5155390;27;20455;-72
2022/10/14 14:23:24;;;;;;;5.73;5.13;;;;;;;;;;5155093;27;20466;-72
2022/10/14 14:25:52;;;;;;;5.23;3.20;;;;;;;;;;5154988;27;20493;-72
2022/10/14 14:28:20;;;;;;;4.60;2.00;;;;;;;;;;5155110;27;20451;-72
2022/10/14 14:30:49;;;;;;;3.30;1.80;;;;;;;;;;5155287;27;20488;-72
2022/10/14 14:33:18;;;;;;;3.17;1.77;;;;;;;;;;5154998;27;20466;-72
2022/10/14 14:35:52;;;;;;;2.33;1.83;;;;;;;;;;5154690;27;20854;-72
2022/10/14 14:38:26;;;;;;;9.70;6.77;;;;;;;;;;5155178;27;20470;-72
2022/10/14 14:41:00;;;;;;;2.53;2.17;;;;;;;;;;5155204;27;20446;-72
2022/10/14 14:43:29;;;;;;;4.90;2.47;;;;;;;;;;5152567;27;20441;-72
2022/10/14 14:45:57;;;;;;;2.47;2.10;;;;;;;;;;5154649;27;20475;-73
2022/10/14 14:48:24;;;;;;;3.40;2.40;;;;;;;;;;5154058;27;20455;-72
2022/10/14 14:50:51;;;;;;;5.17;2.10;;;;;;;;;;5154533;27;20464;-72